Time;durP1;ratioP1;P1;durP2;ratioP2;P2;SDS_P1;SDS_P2;PMS_P1;PMS_P2;Temp;Humidity;BMP_temperature;BMP_pressure;BME280_temperature;BME280_humidity;BME280_pressure;Samples;Min_cycle;Max_cycle;Signal;HPM_P1;HPM_P2
2023/12/24 00:00:07;;;;;;;1.38;0.50;;;20.60;43.10;;;;;;5048397;28;20022;-54
2023/12/24 00:02:33;;;;;;;1.77;0.60;;;20.60;43.20;;;;;;5031741;28;20380;-55
2023/12/24 00:04:59;;;;;;;0.68;0.40;;;20.60;43.20;;;;;;5050871;28;20028;-58
2023/12/24 00:07:25;;;;;;;1.73;0.50;;;20.60;43.30;;;;;;5046048;28;20440;-56
2023/12/24 00:09:50;;;;;;;1.50;0.50;;;20.60;43.30;;;;;;5049766;28;20056;-56
2023/12/24 00:12:16;;;;;;;2.00;0.75;;;20.60;43.30;;;;;;5027910;28;20040;-56
2023/12/24 00:14:42;;;;;;;1.02;0.40;;;20.60;43.30;;;;;;5032655;28;20021;-55
2023/12/24 00:17:08;;;;;;;1.60;0.47;;;20.60;43.30;;;;;;5013728;28;20037;-53
2023/12/24 00:19:33;;;;;;;2.17;0.30;;;20.60;43.30;;;;;;5050678;28;20090;-57
2023/12/24 00:21:59;;;;;;;1.50;0.60;;;20.60;43.40;;;;;;5015895;28;20399;-58
2023/12/24 00:24:25;;;;;;;2.47;0.80;;;20.50;43.30;;;;;;5049018;28;20393;-58
2023/12/24 00:26:51;;;;;;;1.27;0.40;;;20.50;43.30;;;;;;5044528;28;20033;-55
2023/12/24 00:29:18;;;;;;;1.33;0.57;;;20.50;43.30;;;;;;5029993;28;20090;-57
2023/12/24 00:31:44;;;;;;;0.70;0.40;;;20.50;43.30;;;;;;5026094;28;20410;-57
2023/12/24 00:34:09;;;;;;;1.02;0.50;;;20.50;43.40;;;;;;5028650;28;20045;-52
2023/12/24 00:36:35;;;;;;;1.05;0.43;;;20.50;43.40;;;;;;5048029;28;20463;-57
2023/12/24 00:39:01;;;;;;;0.98;0.38;;;20.50;43.40;;;;;;5029432;28;20120;-54
2023/12/24 00:41:30;;;;;;;1.25;0.57;;;20.50;43.40;;;;;;5028780;28;20363;-53
2023/12/24 00:43:56;;;;;;;0.40;0.28;;;20.50;43.40;;;;;;5029173;28;20034;-53
2023/12/24 00:46:22;;;;;;;0.90;0.43;;;20.50;43.40;;;;;;5027256;28;20029;-55
2023/12/24 00:48:47;;;;;;;0.95;0.40;;;20.50;43.40;;;;;;5025992;28;20040;-55
2023/12/24 00:51:16;;;;;;;1.30;0.50;;;20.50;43.50;;;;;;5027239;28;20092;-55
2023/12/24 00:53:42;;;;;;;2.15;0.40;;;20.50;43.40;;;;;;5026807;28;20022;-54
2023/12/24 00:56:08;;;;;;;1.33;0.45;;;20.50;43.40;;;;;;5023709;28;20117;-54
2023/12/24 00:58:33;;;;;;;0.80;0.30;;;20.50;43.40;;;;;;5031017;28;20040;-52
2023/12/24 01:00:59;;;;;;;1.13;0.70;;;20.40;43.40;;;;;;5029028;28;20030;-57
2023/12/24 01:03:25;;;;;;;0.52;0.40;;;20.50;43.40;;;;;;5031979;28;20034;-55
2023/12/24 01:05:51;;;;;;;0.98;0.40;;;20.50;43.40;;;;;;5031598;28;20113;-53
2023/12/24 01:08:17;;;;;;;1.30;0.40;;;20.50;43.40;;;;;;5030925;28;20030;-57
2023/12/24 01:10:42;;;;;;;1.70;0.57;;;20.40;43.40;;;;;;5027418;28;20040;-55
2023/12/24 01:13:09;;;;;;;2.00;0.40;;;20.40;43.40;;;;;;5033540;28;20041;-58
2023/12/24 01:15:35;;;;;;;0.70;0.40;;;20.50;43.40;;;;;;5028233;28;20049;-53
2023/12/24 01:18:00;;;;;;;1.70;0.55;;;20.40;43.40;;;;;;5030253;28;20029;-55
2023/12/24 01:20:26;;;;;;;1.00;0.35;;;20.40;43.40;;;;;;5030125;28;20488;-51
2023/12/24 01:22:52;;;;;;;0.80;0.50;;;20.40;43.40;;;;;;5027429;28;20426;-56
2023/12/24 01:25:18;;;;;;;0.82;0.35;;;20.40;43.40;;;;;;5028015;28;20445;-55
2023/12/24 01:27:44;;;;;;;0.70;0.40;;;20.40;43.30;;;;;;5030704;28;20043;-53
2023/12/24 01:30:11;;;;;;;1.38;0.43;;;20.40;44.00;;;;;;5029789;28;20037;-58
2023/12/24 01:32:36;;;;;;;1.02;0.32;;;20.40;43.30;;;;;;5031371;28;20361;-55
2023/12/24 01:35:02;;;;;;;0.40;0.20;;;20.40;43.30;;;;;;5028136;28;20040;-54
2023/12/24 01:37:28;;;;;;;0.55;0.22;;;20.40;43.40;;;;;;5038322;28;20507;-56
2023/12/24 01:39:54;;;;;;;1.10;0.40;;;20.40;43.30;;;;;;5053050;28;20025;-59
2023/12/24 01:42:20;;;;;;;1.15;0.38;;;20.40;43.30;;;;;;5030951;28;20041;-58
2023/12/24 01:44:46;;;;;;;1.25;0.35;;;20.40;43.40;;;;;;5032578;28;20071;-59
2023/12/24 01:47:12;;;;;;;1.13;0.50;;;20.40;43.40;;;;;;5052923;28;20032;-57
2023/12/24 01:49:38;;;;;;;0.88;0.32;;;20.40;43.40;;;;;;5049196;28;20025;-56
2023/12/24 01:52:05;;;;;;;0.63;0.30;;;20.40;43.40;;;;;;5049872;28;20033;-56
2023/12/24 01:54:32;;;;;;;1.60;0.45;;;20.30;43.40;;;;;;5033639;28;20112;-56
2023/12/24 01:56:58;;;;;;;1.23;0.40;;;20.40;43.40;;;;;;5049751;28;20057;-57
2023/12/24 01:59:25;;;;;;;1.13;0.47;;;20.30;43.40;;;;;;5021234;28;20043;-55
2023/12/24 02:01:52;;;;;;;1.73;0.43;;;20.30;43.40;;;;;;5031230;28;20037;-57
2023/12/24 02:04:18;;;;;;;1.92;0.60;;;20.30;43.50;;;;;;5034359;28;20029;-55
2023/12/24 02:06:44;;;;;;;1.17;0.30;;;20.30;43.50;;;;;;5030488;28;20048;-57
2023/12/24 02:09:10;;;;;;;0.65;0.32;;;20.30;43.50;;;;;;5034222;28;20025;-56
2023/12/24 02:11:36;;;;;;;1.90;0.50;;;20.30;43.60;;;;;;5052110;28;20471;-55
2023/12/24 02:14:02;;;;;;;0.32;0.20;;;20.30;43.60;;;;;;5028957;28;20029;-57
2023/12/24 02:16:34;;;;;;;0.57;0.30;;;20.30;43.60;;;;;;5027316;28;20029;-55
2023/12/24 02:19:01;;;;;;;1.08;0.43;;;20.30;43.70;;;;;;5032033;28;20441;-54
2023/12/24 02:21:27;;;;;;;0.88;0.30;;;20.30;43.70;;;;;;5031628;28;20108;-56
2023/12/24 02:23:53;;;;;;;0.55;0.32;;;20.30;43.80;;;;;;5053122;28;20035;-55
2023/12/24 02:26:33;;;;;;;0.50;0.30;;;20.30;43.80;;;;;;5035706;28;20033;-56
2023/12/24 02:29:07;;;;;;;0.68;0.22;;;20.30;43.80;;;;;;5051320;28;20028;-54
2023/12/24 02:31:37;;;;;;;0.28;0.20;;;20.30;43.90;;;;;;5046017;28;20025;-55
2023/12/24 02:34:04;;;;;;;0.90;0.30;;;20.30;44.00;;;;;;5053966;28;20111;-56
2023/12/24 02:36:32;;;;;;;1.02;0.43;;;20.30;44.00;;;;;;5047640;28;20100;-54
2023/12/24 02:38:57;;;;;;;1.48;0.50;;;20.30;44.00;;;;;;5033497;28;20044;-56
2023/12/24 02:41:24;;;;;;;0.30;0.20;;;20.30;44.10;;;;;;5032077;28;20033;-56
2023/12/24 02:43:50;;;;;;;0.90;0.40;;;20.20;44.10;;;;;;5052152;28;20025;-57
2023/12/24 02:46:16;;;;;;;1.40;0.50;;;20.30;44.20;;;;;;5043395;28;20512;-57
2023/12/24 02:48:41;;;;;;;1.45;0.60;;;20.20;44.10;;;;;;5035489;28;20094;-57
2023/12/24 02:51:07;;;;;;;0.70;0.32;;;20.20;44.20;;;;;;5024339;28;20365;-55
2023/12/24 02:53:33;;;;;;;1.05;0.30;;;20.20;44.30;;;;;;5049497;28;20021;-55
2023/12/24 02:55:59;;;;;;;0.93;0.40;;;20.20;44.30;;;;;;5035129;28;20025;-55
2023/12/24 02:58:25;;;;;;;1.52;0.50;;;20.20;44.30;;;;;;5031019;28;20352;-53
2023/12/24 03:00:51;;;;;;;1.02;0.40;;;20.20;44.40;;;;;;5030687;28;20029;-56
2023/12/24 03:03:18;;;;;;;2.35;0.60;;;20.20;44.40;;;;;;5031713;28;20099;-55
2023/12/24 03:05:44;;;;;;;1.17;0.50;;;20.20;44.40;;;;;;5034099;28;20025;-55
2023/12/24 03:08:10;;;;;;;1.00;0.40;;;20.20;44.50;;;;;;5046585;28;20048;-59
2023/12/24 03:10:35;;;;;;;0.70;0.30;;;20.20;44.50;;;;;;5047118;28;20033;-57
2023/12/24 03:13:01;;;;;;;1.15;0.40;;;20.20;44.60;;;;;;5048887;28;20353;-58
2023/12/24 03:15:27;;;;;;;1.25;0.35;;;20.20;44.70;;;;;;5050765;28;20108;-57
2023/12/24 03:17:53;;;;;;;0.88;0.47;;;20.20;44.70;;;;;;5048263;28;20071;-56
2023/12/24 03:20:19;;;;;;;0.93;0.45;;;20.20;44.80;;;;;;5027830;28;20024;-55
2023/12/24 03:22:44;;;;;;;0.80;0.30;;;20.20;44.80;;;;;;5027603;28;20051;-54
2023/12/24 03:25:10;;;;;;;1.13;0.40;;;20.20;44.80;;;;;;5042660;28;20154;-57
2023/12/24 03:27:36;;;;;;;1.35;0.40;;;20.20;44.90;;;;;;5047097;28;20018;-54
2023/12/24 03:30:02;;;;;;;1.02;0.40;;;20.20;44.90;;;;;;5033249;28;20021;-53
2023/12/24 03:32:28;;;;;;;1.58;0.55;;;20.10;45.00;;;;;;5046917;28;20033;-56
2023/12/24 03:34:54;;;;;;;1.83;0.40;;;20.10;45.00;;;;;;5011019;28;20033;-54
2023/12/24 03:37:20;;;;;;;1.42;0.50;;;20.10;45.10;;;;;;5027105;28;20107;-54
2023/12/24 03:39:46;;;;;;;0.85;0.20;;;20.10;45.10;;;;;;5047876;28;20150;-56
2023/12/24 03:42:11;;;;;;;0.40;0.17;;;20.10;45.10;;;;;;5046935;28;20040;-55
2023/12/24 03:44:37;;;;;;;0.68;0.20;;;20.10;45.20;;;;;;5046030;28;20030;-54
2023/12/24 03:47:03;;;;;;;0.38;0.20;;;20.10;45.20;;;;;;5046752;28;20028;-57
2023/12/24 03:49:29;;;;;;;0.65;0.20;;;20.10;45.30;;;;;;5044311;28;20037;-56
2023/12/24 03:51:55;;;;;;;0.75;0.30;;;20.20;45.40;;;;;;5030919;28;20064;-56
2023/12/24 03:54:21;;;;;;;0.22;0.13;;;20.10;45.40;;;;;;5032197;28;20356;-54
2023/12/24 03:56:48;;;;;;;0.35;0.20;;;20.10;45.50;;;;;;5032036;28;20432;-58
2023/12/24 03:59:13;;;;;;;0.85;0.30;;;20.10;45.50;;;;;;5029103;28;20031;-57
2023/12/24 04:01:39;;;;;;;1.13;0.30;;;20.10;45.50;;;;;;5030997;28;20371;-57
2023/12/24 04:04:05;;;;;;;0.95;0.32;;;20.10;45.60;;;;;;5031295;28;20044;-54
2023/12/24 04:06:31;;;;;;;1.05;0.40;;;20.10;45.70;;;;;;5027194;28;20448;-56
2023/12/24 04:08:57;;;;;;;0.10;0.10;;;20.10;45.80;;;;;;5045941;28;20038;-54
2023/12/24 04:11:24;;;;;;;1.00;0.32;;;20.10;45.80;;;;;;5028483;28;20084;-56
2023/12/24 04:13:50;;;;;;;0.65;0.20;;;20.10;45.80;;;;;;5031702;28;20440;-56
2023/12/24 04:16:17;;;;;;;0.50;0.22;;;20.10;45.80;;;;;;5047697;28;20090;-56
2023/12/24 04:18:43;;;;;;;0.15;0.10;;;20.10;45.80;;;;;;5028662;28;20029;-57
2023/12/24 04:21:08;;;;;;;0.40;0.10;;;20.10;45.80;;;;;;5018820;28;20043;-55
2023/12/24 04:23:34;;;;;;;0.40;0.35;;;20.00;45.80;;;;;;5030033;28;20045;-54
2023/12/24 04:26:00;;;;;;;0.85;0.30;;;20.00;45.90;;;;;;5013884;28;20024;-56
2023/12/24 04:28:26;;;;;;;0.20;0.10;;;20.00;45.90;;;;;;5033005;28;20037;-54
2023/12/24 04:30:52;;;;;;;0.38;0.10;;;20.00;46.00;;;;;;5028473;28;20022;-54
2023/12/24 04:33:18;;;;;;;0.63;0.20;;;20.00;46.10;;;;;;5029498;28;20029;-54
2023/12/24 04:35:45;;;;;;;0.50;0.10;;;20.00;46.10;;;;;;5029579;28;20064;-58
2023/12/24 04:38:12;;;;;;;0.20;0.10;;;20.10;46.20;;;;;;5052350;28;20073;-53
2023/12/24 04:40:38;;;;;;;0.25;0.10;;;20.00;46.20;;;;;;5047553;28;20029;-56
2023/12/24 04:43:04;;;;;;;0.10;0.10;;;20.00;46.20;;;;;;5034092;28;20080;-56
2023/12/24 04:45:30;;;;;;;0.20;0.10;;;20.00;46.30;;;;;;5027564;28;20063;-58
2023/12/24 04:47:58;;;;;;;0.05;0.05;;;20.00;46.30;;;;;;5018124;28;20024;-56
2023/12/24 04:50:25;;;;;;;0.50;0.10;;;20.00;46.30;;;;;;5015601;28;20044;-58
2023/12/24 04:52:50;;;;;;;0.28;0.10;;;20.00;46.40;;;;;;5031301;28;20032;-55
2023/12/24 04:55:16;;;;;;;0.30;0.10;;;20.00;46.40;;;;;;5046672;28;20352;-55
2023/12/24 04:57:42;;;;;;;0.10;0.10;;;20.00;46.50;;;;;;5030605;28;20362;-57
2023/12/24 05:00:09;;;;;;;0.00;0.00;;;20.00;46.60;;;;;;5034202;28;20021;-56
2023/12/24 05:02:35;;;;;;;0.95;0.20;;;20.00;46.60;;;;;;5031644;28;20035;-55
2023/12/24 05:05:05;;;;;;;0.03;0.03;;;20.00;46.60;;;;;;5033239;28;20033;-55
2023/12/24 05:07:31;;;;;;;0.28;0.15;;;20.00;46.60;;;;;;5029519;28;20514;-55
2023/12/24 05:09:57;;;;;;;0.20;0.10;;;20.00;46.70;;;;;;5028052;28;20022;-56
2023/12/24 05:12:23;;;;;;;0.10;0.10;;;20.00;46.70;;;;;;5031055;28;20060;-55
2023/12/24 05:14:49;;;;;;;0.28;0.10;;;20.00;46.80;;;;;;5029954;28;20048;-57
2023/12/24 05:17:15;;;;;;;0.22;0.20;;;20.00;46.80;;;;;;5030116;28;20040;-56
2023/12/24 05:19:41;;;;;;;0.30;0.10;;;20.00;46.80;;;;;;5025852;28;20079;-56
2023/12/24 05:22:06;;;;;;;0.20;0.10;;;20.00;46.90;;;;;;5028650;28;20128;-58
2023/12/24 05:24:32;;;;;;;0.20;0.10;;;20.00;47.00;;;;;;5048785;28;20025;-57
2023/12/24 05:26:58;;;;;;;0.50;0.10;;;20.00;47.00;;;;;;5046007;28;20051;-54
2023/12/24 05:29:24;;;;;;;0.55;0.10;;;20.00;47.00;;;;;;5043354;28;20449;-56
2023/12/24 05:31:50;;;;;;;0.25;0.10;;;20.00;47.00;;;;;;5046692;28;20021;-56
2023/12/24 05:34:16;;;;;;;0.00;0.00;;;20.00;47.10;;;;;;5045551;28;20036;-55
2023/12/24 05:36:42;;;;;;;0.20;0.10;;;20.00;47.10;;;;;;5048775;28;20368;-54
2023/12/24 05:39:11;;;;;;;0.35;0.10;;;20.00;47.20;;;;;;5026545;28;20424;-54
2023/12/24 05:41:37;;;;;;;0.13;0.10;;;20.00;47.20;;;;;;5045765;28;20021;-56
2023/12/24 05:44:03;;;;;;;0.20;0.08;;;20.00;47.30;;;;;;5049684;28;20033;-57
2023/12/24 05:46:28;;;;;;;0.17;0.10;;;20.00;47.30;;;;;;5043579;28;20093;-56
2023/12/24 05:48:54;;;;;;;0.22;0.08;;;20.00;47.40;;;;;;5050325;28;20448;-57
2023/12/24 05:51:20;;;;;;;0.57;0.10;;;20.00;47.40;;;;;;5044623;28;20120;-56
2023/12/24 05:53:46;;;;;;;0.10;0.10;;;20.00;47.50;;;;;;5049803;28;20350;-57
2023/12/24 05:56:11;;;;;;;0.17;0.10;;;19.90;47.50;;;;;;5045687;28;20056;-56
2023/12/24 05:58:38;;;;;;;0.15;0.10;;;20.00;47.60;;;;;;5050065;28;20439;-57
2023/12/24 06:01:04;;;;;;;0.20;0.10;;;19.90;47.50;;;;;;5047637;28;20035;-56
2023/12/24 06:03:30;;;;;;;0.22;0.08;;;19.90;47.60;;;;;;5050755;28;20456;-54
2023/12/24 06:05:55;;;;;;;0.30;0.10;;;19.90;47.60;;;;;;5049681;28;20064;-54
2023/12/24 06:08:23;;;;;;;0.10;0.10;;;19.90;47.70;;;;;;5032356;28;20032;-57
2023/12/24 06:10:49;;;;;;;0.13;0.00;;;20.00;47.80;;;;;;5029334;28;20122;-56
2023/12/24 06:13:15;;;;;;;0.10;0.10;;;19.90;47.80;;;;;;5050678;28;20154;-51
2023/12/24 06:15:41;;;;;;;0.17;0.10;;;19.90;47.80;;;;;;5047750;28;20416;-56
2023/12/24 06:18:08;;;;;;;0.90;0.00;;;19.90;47.90;;;;;;5049830;28;20094;-58
2023/12/24 06:20:36;;;;;;;0.60;0.10;;;19.90;47.90;;;;;;5033938;28;20039;-55
2023/12/24 06:23:02;;;;;;;0.43;0.10;;;19.90;47.90;;;;;;5052424;28;20042;-57
2023/12/24 06:25:28;;;;;;;0.28;0.10;;;19.90;48.60;;;;;;5048896;28;20083;-56
2023/12/24 06:27:54;;;;;;;0.13;0.10;;;19.90;48.00;;;;;;5050872;28;20029;-55
2023/12/24 06:30:21;;;;;;;0.10;0.00;;;19.90;48.10;;;;;;5052594;28;20337;-54
2023/12/24 06:32:47;;;;;;;0.20;0.10;;;19.90;48.10;;;;;;5054883;28;20029;-57
2023/12/24 06:35:14;;;;;;;0.00;0.00;;;19.90;48.10;;;;;;5052170;28;20036;-57
2023/12/24 06:37:40;;;;;;;0.20;0.10;;;19.90;48.20;;;;;;5046966;28;20419;-57
2023/12/24 06:40:06;;;;;;;0.13;0.10;;;19.90;48.20;;;;;;5049177;28;20099;-54
2023/12/24 06:42:32;;;;;;;0.10;0.10;;;19.90;48.30;;;;;;5053290;28;20033;-55
2023/12/24 06:44:58;;;;;;;0.30;0.10;;;19.90;48.30;;;;;;5051573;28;20116;-56
2023/12/24 06:47:25;;;;;;;0.30;0.20;;;19.90;48.30;;;;;;5050729;28;20033;-55
2023/12/24 06:49:50;;;;;;;0.38;0.13;;;19.90;48.30;;;;;;5047359;28;20091;-54
2023/12/24 06:52:16;;;;;;;0.32;0.10;;;19.90;48.40;;;;;;5030109;28;20456;-56
2023/12/24 06:54:42;;;;;;;0.10;0.10;;;19.90;48.40;;;;;;5052061;28;20028;-58
2023/12/24 06:57:08;;;;;;;0.45;0.10;;;19.90;48.40;;;;;;5052325;28;20029;-57
2023/12/24 06:59:34;;;;;;;0.52;0.20;;;19.90;48.50;;;;;;5044715;28;20025;-51
2023/12/24 07:02:00;;;;;;;0.30;0.17;;;19.90;48.50;;;;;;5047004;28;20034;-57
2023/12/24 07:04:26;;;;;;;0.10;0.10;;;19.90;48.50;;;;;;5050291;28;20044;-59
2023/12/24 07:06:52;;;;;;;0.77;0.20;;;19.90;48.60;;;;;;5047436;28;20037;-55
2023/12/24 07:09:18;;;;;;;0.30;0.10;;;19.90;48.60;;;;;;5051755;28;20017;-57
2023/12/24 07:11:44;;;;;;;0.10;0.10;;;19.90;48.60;;;;;;5052103;28;20120;-58
2023/12/24 07:14:10;;;;;;;0.35;0.20;;;19.90;48.70;;;;;;5033432;28;20507;-56
2023/12/24 07:16:36;;;;;;;0.22;0.10;;;19.90;48.70;;;;;;5048271;28;20432;-58
2023/12/24 07:19:05;;;;;;;0.20;0.10;;;19.90;48.70;;;;;;5050745;28;20029;-53
2023/12/24 07:21:31;;;;;;;0.35;0.17;;;19.80;48.70;;;;;;5050493;28;20052;-57
2023/12/24 07:23:57;;;;;;;0.35;0.10;;;19.80;48.80;;;;;;5051295;28;20119;-58
2023/12/24 07:26:23;;;;;;;0.52;0.20;;;19.80;48.80;;;;;;5045185;28;20033;-57
2023/12/24 07:28:48;;;;;;;0.55;0.10;;;19.90;49.00;;;;;;5048249;28;20021;-53
2023/12/24 07:31:14;;;;;;;0.50;0.10;;;19.90;49.10;;;;;;5033339;28;20041;-57
2023/12/24 07:33:41;;;;;;;0.10;0.10;;;19.90;49.10;;;;;;5050488;28;20047;-55
2023/12/24 07:36:07;;;;;;;0.35;0.20;;;19.90;49.10;;;;;;5028909;28;20033;-56
2023/12/24 07:38:33;;;;;;;0.40;0.30;;;19.90;49.10;;;;;;5049524;28;20349;-53
2023/12/24 07:40:59;;;;;;;0.68;0.30;;;19.90;49.10;;;;;;5048014;28;20021;-58
2023/12/24 07:43:24;;;;;;;0.43;0.20;;;19.90;49.10;;;;;;5050296;28;20040;-56
2023/12/24 07:45:50;;;;;;;0.38;0.10;;;19.90;49.20;;;;;;5050247;28;20021;-57
2023/12/24 07:48:16;;;;;;;0.20;0.10;;;19.90;49.20;;;;;;5040938;28;20051;-57
2023/12/24 07:50:43;;;;;;;0.38;0.10;;;19.90;49.20;;;;;;5029578;28;20028;-55
2023/12/24 07:53:08;;;;;;;0.47;0.30;;;19.90;49.30;;;;;;5045058;28;20020;-56
2023/12/24 07:55:34;;;;;;;1.13;0.40;;;19.80;49.30;;;;;;5043616;28;20036;-56
2023/12/24 07:58:00;;;;;;;1.10;0.25;;;19.90;49.30;;;;;;5048529;28;20052;-54
2023/12/24 08:00:26;;;;;;;1.20;0.50;;;19.90;49.40;;;;;;5049347;28;20020;-55
2023/12/24 08:02:52;;;;;;;1.00;0.30;;;19.90;49.40;;;;;;5030583;28;20029;-57
2023/12/24 08:05:18;;;;;;;2.30;0.50;;;19.80;49.40;;;;;;5047544;28;20480;-57
2023/12/24 08:07:43;;;;;;;1.17;0.22;;;19.80;49.40;;;;;;5048410;28;20119;-55
2023/12/24 08:10:10;;;;;;;1.67;0.52;;;19.90;49.50;;;;;;5044924;28;20017;-57
2023/12/24 08:12:35;;;;;;;1.35;0.43;;;19.90;49.50;;;;;;5034216;28;20120;-57
2023/12/24 08:15:02;;;;;;;1.58;0.35;;;19.90;49.50;;;;;;5048879;28;20107;-57
2023/12/24 08:17:27;;;;;;;0.93;0.30;;;19.90;49.50;;;;;;5046573;28;20411;-55
2023/12/24 08:19:54;;;;;;;1.90;0.50;;;19.90;49.50;;;;;;5047254;28;20025;-56
2023/12/24 08:22:20;;;;;;;0.73;0.30;;;19.90;50.30;;;;;;5031484;28;20157;-56
2023/12/24 08:24:48;;;;;;;1.05;0.57;;;19.90;49.70;;;;;;5026730;28;20021;-55
2023/12/24 08:27:13;;;;;;;3.00;0.75;;;19.90;49.80;;;;;;5047913;28;20035;-56
2023/12/24 08:29:39;;;;;;;2.08;0.45;;;19.90;49.80;;;;;;5030036;28;20021;-58
2023/12/24 08:32:05;;;;;;;1.85;0.50;;;19.90;49.80;;;;;;5035579;28;20447;-55
2023/12/24 08:34:32;;;;;;;1.50;0.40;;;19.90;49.90;;;;;;5043536;28;20040;-56
2023/12/24 08:36:58;;;;;;;1.00;0.30;;;19.90;49.90;;;;;;5040591;28;20025;-57
2023/12/24 08:39:24;;;;;;;1.27;0.50;;;19.90;50.00;;;;;;5043067;28;20218;-58
2023/12/24 08:41:50;;;;;;;1.30;0.40;;;19.90;50.60;;;;;;5050562;28;20479;-55
2023/12/24 08:44:16;;;;;;;1.65;0.50;;;19.90;50.00;;;;;;5039430;28;20025;-53
2023/12/24 08:46:45;;;;;;;1.67;0.57;;;19.90;50.10;;;;;;5044608;28;20112;-57
2023/12/24 08:49:11;;;;;;;0.95;0.30;;;19.90;50.10;;;;;;5043481;28;20045;-54
2023/12/24 08:51:37;;;;;;;1.40;0.40;;;19.90;50.20;;;;;;5045189;28;20021;-56
2023/12/24 08:54:03;;;;;;;1.60;0.57;;;19.90;50.20;;;;;;5028164;28;20088;-58
2023/12/24 08:56:34;;;;;;;0.60;0.32;;;19.90;50.20;;;;;;5033516;28;20033;-54
2023/12/24 08:59:00;;;;;;;0.82;0.43;;;19.90;50.30;;;;;;5025627;28;20052;-59
2023/12/24 09:01:25;;;;;;;1.13;0.50;;;19.90;50.40;;;;;;5052771;28;20074;-55
2023/12/24 09:03:51;;;;;;;0.80;0.30;;;19.90;50.40;;;;;;5047880;28;20428;-56
2023/12/24 09:06:17;;;;;;;1.00;0.30;;;19.90;50.50;;;;;;5046437;28;20373;-56
2023/12/24 09:08:43;;;;;;;1.23;0.30;;;19.90;50.60;;;;;;5027551;28;20021;-56
2023/12/24 09:11:08;;;;;;;1.02;0.40;;;19.90;50.60;;;;;;5052203;28;20029;-56
2023/12/24 09:13:34;;;;;;;1.58;0.40;;;20.00;50.60;;;;;;5043475;28;20507;-55
2023/12/24 09:16:00;;;;;;;1.45;0.50;;;20.00;50.60;;;;;;5015403;28;20108;-55
2023/12/24 09:18:26;;;;;;;1.30;0.30;;;20.00;50.50;;;;;;5050326;28;20064;-55
2023/12/24 09:20:53;;;;;;;1.10;0.30;;;20.00;50.50;;;;;;5045530;28;20029;-54
2023/12/24 09:23:19;;;;;;;0.77;0.35;;;20.10;50.50;;;;;;5027360;28;20172;-58
2023/12/24 09:25:45;;;;;;;1.00;0.40;;;20.10;50.40;;;;;;5041925;28;20026;-54
2023/12/24 09:28:11;;;;;;;1.25;0.40;;;20.20;50.40;;;;;;5051843;28;20349;-54
2023/12/24 09:30:37;;;;;;;1.30;0.30;;;20.30;50.40;;;;;;5056294;28;20021;-56
2023/12/24 09:33:03;;;;;;;1.42;0.30;;;20.30;50.40;;;;;;5056666;28;20025;-67
2023/12/24 09:35:30;;;;;;;2.30;0.30;;;20.40;50.30;;;;;;5056055;28;20025;-64
2023/12/24 09:37:59;;;;;;;0.25;0.17;;;20.40;49.80;;;;;;5056412;28;20048;-67
2023/12/24 09:40:25;;;;;;;0.50;0.10;;;20.40;49.40;;;;;;5036495;28;20045;-56
2023/12/24 09:42:51;;;;;;;0.82;0.20;;;20.40;49.30;;;;;;5052363;28;20126;-55
2023/12/24 09:45:16;;;;;;;0.63;0.20;;;20.30;49.20;;;;;;5052381;28;20029;-57
2023/12/24 09:47:42;;;;;;;0.60;0.22;;;20.40;49.20;;;;;;5051900;28;20028;-58
2023/12/24 09:50:08;;;;;;;0.25;0.20;;;20.40;49.30;;;;;;5051121;28;20056;-59
2023/12/24 09:52:34;;;;;;;0.43;0.20;;;20.40;49.20;;;;;;5054079;28;20036;-56
2023/12/24 09:55:01;;;;;;;0.90;0.40;;;20.50;49.30;;;;;;5047544;28;20037;-57
2023/12/24 09:57:27;;;;;;;0.70;0.25;;;20.50;49.30;;;;;;5053117;28;20033;-58
2023/12/24 09:59:52;;;;;;;0.50;0.20;;;20.50;49.30;;;;;;5046763;28;20036;-57
2023/12/24 10:02:18;;;;;;;0.80;0.22;;;20.60;49.40;;;;;;5054950;28;20048;-57
2023/12/24 10:04:44;;;;;;;0.20;0.20;;;20.60;49.40;;;;;;5056381;28;20044;-57
2023/12/24 10:07:10;;;;;;;1.10;0.50;;;20.70;49.40;;;;;;5057422;28;20537;-56
2023/12/24 10:09:49;;;;;;;0.65;0.30;;;20.70;49.40;;;;;;5057364;28;20467;-57
2023/12/24 10:12:15;;;;;;;1.10;0.40;;;20.70;49.40;;;;;;5038443;28;20029;-57
2023/12/24 10:14:56;;;;;;;0.13;0.13;;;20.80;49.40;;;;;;5049821;28;20025;-58
2023/12/24 10:17:35;;;;;;;0.75;0.50;;;20.80;49.40;;;;;;5045340;28;20045;-58
2023/12/24 10:20:09;;;;;;;0.50;0.20;;;20.80;49.40;;;;;;5042537;28;20464;-59
2023/12/24 10:22:35;;;;;;;0.82;0.32;;;20.80;49.40;;;;;;5027389;28;20041;-55
2023/12/24 10:25:06;;;;;;;0.98;0.50;;;20.80;49.50;;;;;;5046785;28;20025;-51
2023/12/24 10:27:32;;;;;;;1.23;0.50;;;20.80;49.50;;;;;;5040051;28;20072;-54
2023/12/24 10:30:10;;;;;;;1.52;0.47;;;20.90;49.60;;;;;;5045109;28;20025;-54
2023/12/24 10:32:35;;;;;;;1.35;0.50;;;20.90;49.70;;;;;;5049646;28;20043;-55
2023/12/24 10:35:01;;;;;;;1.92;0.70;;;20.90;49.70;;;;;;5047771;28;20029;-53
2023/12/24 10:37:29;;;;;;;1.70;0.70;;;20.90;49.70;;;;;;5039839;28;20105;-53
2023/12/24 10:40:09;;;;;;;3.30;1.63;;;20.90;49.80;;;;;;5050924;28;20041;-51
2023/12/24 10:42:39;;;;;;;1.88;0.80;;;21.00;49.90;;;;;;5048193;28;20360;-54
2023/12/24 10:45:05;;;;;;;2.25;0.95;;;21.10;50.50;;;;;;5040972;28;20029;-57
2023/12/24 10:47:31;;;;;;;2.28;0.90;;;21.10;49.70;;;;;;5033287;28;20039;-58
2023/12/24 10:49:57;;;;;;;2.90;0.90;;;21.20;49.60;;;;;;5051359;28;20048;-57
2023/12/24 10:52:25;;;;;;;3.60;1.00;;;21.40;49.50;;;;;;5032881;28;20341;-67
2023/12/24 10:54:53;;;;;;;1.70;0.40;;;21.40;49.20;;;;;;5048168;28;20336;-66
2023/12/24 10:57:30;;;;;;;0.80;0.40;;;21.50;48.70;;;;;;5048420;28;20025;-65
2023/12/24 11:00:07;;;;;;;0.55;0.30;;;21.50;48.20;;;;;;5049467;28;20451;-67
2023/12/24 11:02:36;;;;;;;0.90;0.35;;;21.50;48.00;;;;;;5053263;28;20107;-68
2023/12/24 11:05:02;;;;;;;0.85;0.30;;;21.50;47.90;;;;;;5027737;28;20120;-67
2023/12/24 11:07:48;;;;;;;0.50;0.30;;;21.50;47.70;;;;;;5050964;28;20029;-64
2023/12/24 11:10:37;;;;;;;2.30;0.50;;;21.50;47.60;;;;;;5050335;28;20498;-69
2023/12/24 11:13:07;;;;;;;1.35;0.63;;;21.50;47.50;;;;;;5045350;28;20025;-57
2023/12/24 11:15:44;;;;;;;0.93;0.47;;;21.50;47.60;;;;;;5047740;28;20047;-49
2023/12/24 11:18:10;;;;;;;1.17;0.43;;;21.50;47.70;;;;;;5046606;28;20022;-57
2023/12/24 11:20:42;;;;;;;2.17;0.50;;;21.60;47.80;;;;;;5045296;28;20100;-55
2023/12/24 11:23:09;;;;;;;1.58;0.60;;;21.70;47.90;;;;;;5029476;28;20108;-55
2023/12/24 11:25:36;;;;;;;1.58;0.68;;;21.60;47.90;;;;;;5041955;28;20033;-50
2023/12/24 11:28:03;;;;;;;2.42;0.82;;;21.60;48.20;;;;;;5031108;28;20029;-56
2023/12/24 11:30:29;;;;;;;2.97;1.38;;;21.60;48.40;;;;;;5043606;28;20017;-56
2023/12/24 11:32:55;;;;;;;4.25;1.92;;;21.60;48.60;;;;;;5047223;28;20424;-57
2023/12/24 11:35:52;;;;;;;6.38;2.20;;;21.50;49.00;;;;;;5049775;28;20025;-54
2023/12/24 11:38:33;;;;;;;5.05;2.78;;;21.50;49.50;;;;;;5047311;28;20057;-56
2023/12/24 11:41:09;;;;;;;7.28;3.22;;;21.50;50.00;;;;;;5030194;28;21719;-51
2023/12/24 11:43:36;;;;;;;5.15;2.63;;;21.50;50.30;;;;;;5051592;28;20044;-50
2023/12/24 11:46:03;;;;;;;5.13;2.90;;;21.50;50.60;;;;;;5052143;28;20476;-50
2023/12/24 11:48:32;;;;;;;8.45;3.72;;;21.50;51.00;;;;;;5046077;28;20037;-49
2023/12/24 11:51:05;;;;;;;8.32;3.90;;;21.50;51.40;;;;;;5036710;28;20063;-49
2023/12/24 11:53:34;;;;;;;9.48;3.95;;;21.60;51.90;;;;;;5048192;28;20021;-53
2023/12/24 11:56:15;;;;;;;9.02;3.80;;;21.60;52.10;;;;;;5030654;28;20498;-55
2023/12/24 11:59:00;;;;;;;8.18;3.38;;;21.60;52.20;;;;;;5050218;28;20027;-56
2023/12/24 12:01:37;;;;;;;8.82;3.55;;;21.60;52.40;;;;;;5044485;28;20032;-52
2023/12/24 12:04:05;;;;;;;6.25;2.58;;;21.70;52.70;;;;;;5049833;28;20420;-54
2023/12/24 12:06:35;;;;;;;6.70;3.00;;;21.70;53.00;;;;;;5043605;28;20337;-52
2023/12/24 12:09:06;;;;;;;5.13;2.67;;;21.70;53.20;;;;;;5042064;28;20184;-54
2023/12/24 12:11:32;;;;;;;5.13;2.78;;;21.70;53.30;;;;;;5035387;28;20108;-49
2023/12/24 12:13:59;;;;;;;4.32;2.28;;;21.70;53.30;;;;;;5025349;28;20056;-54
2023/12/24 12:16:25;;;;;;;6.05;2.92;;;21.70;53.20;;;;;;5036866;28;20028;-57
2023/12/24 12:18:50;;;;;;;5.10;2.47;;;21.70;53.10;;;;;;5048041;28;20036;-55
2023/12/24 12:21:16;;;;;;;5.13;2.15;;;21.70;53.10;;;;;;5031155;28;20104;-52
2023/12/24 12:23:42;;;;;;;4.60;2.45;;;21.70;53.20;;;;;;5048325;28;20384;-59
2023/12/24 12:26:08;;;;;;;6.55;2.58;;;21.80;53.50;;;;;;5032194;28;20029;-52
2023/12/24 12:28:35;;;;;;;4.20;2.40;;;21.70;53.60;;;;;;5049437;28;20025;-49
2023/12/24 12:31:01;;;;;;;4.75;2.22;;;21.70;53.70;;;;;;5043593;28;20029;-55
2023/12/24 12:33:28;;;;;;;3.75;2.08;;;21.70;53.60;;;;;;5045433;28;20029;-55
2023/12/24 12:35:55;;;;;;;4.45;2.05;;;21.70;53.60;;;;;;5050666;28;20028;-52
2023/12/24 12:38:22;;;;;;;3.53;1.67;;;21.80;53.50;;;;;;5040373;28;20413;-57
2023/12/24 12:40:49;;;;;;;3.50;1.48;;;21.80;53.30;;;;;;5024703;28;20411;-58
2023/12/24 12:43:16;;;;;;;4.25;1.80;;;21.90;53.00;;;;;;5048482;28;20043;-53
2023/12/24 12:45:43;;;;;;;2.85;1.38;;;22.00;52.80;;;;;;5046560;28;20025;-57